Погода Биейкина неделю

Витебская область, Белоруссия

24 - 30 мая
  • 24мая
    Сегодня
    +11°
    +25°
    Ясно и безоблачно
    ВремяПогодаТемператураВлажностьДавлениеВетер, м/сВероятность осадков
    00:00Практически безоблачно+16°C80 %757 мм1.6 м/с2 %
    03:00Ясно и безоблачно+14°C65 %757 мм1.6 м/с2 %
    06:00Ясно и безоблачно+13°C68 %758 мм1.6 м/с2 %
    09:00Ясно и безоблачно+17°C61 %758 мм2.6 м/с2 %
    12:00Ясно и безоблачно+22°C47 %759 мм3.5 м/с2 %
    15:00Ясно и безоблачно+24°C43 %758 мм3.5 м/с2 %
    18:00Ясно и безоблачно+23°C44 %757 мм3.0 м/с2 %
    21:00Ясно и безоблачно+20°C62 %757 мм2.2 м/с2 %
  • 25мая
    Суббота
    +10°
    +26°
    Практически безоблачно
    ВремяПогодаТемператураВлажностьДавлениеВетер, м/сВероятность осадков
    00:00Ясно и безоблачно+15°C61 %758 мм1.6 м/с2 %
    03:00Ясно и безоблачно+13°C68 %758 мм1.3 м/с2 %
    06:00Ясно и безоблачно+13°C71 %758 мм1.2 м/с2 %
    09:00Ясно и безоблачно+18°C63 %758 мм1.8 м/с2 %
    12:00Ясно и безоблачно+24°C51 %757 мм2.8 м/с2 %
    15:00Практически безоблачно+25°C42 %757 мм2.7 м/с7 %
    18:00Небольшая облачность, возможен дождь с грозой+25°C47 %756 мм2.3 м/с35 %
    21:00Небольшая облачность+21°C66 %756 мм1.1 м/с9 %
  • 26мая
    Воскресенье
    +12°
    +25°
    Практически безоблачно
    ВремяПогодаТемператураВлажностьДавлениеВетер, м/сВероятность осадков
    00:00Ясно и безоблачно+15°C88 %756 мм1.0 м/с2 %
    03:00Ясно и безоблачно+13°C90 %756 мм0.7 м/с2 %
    06:00Ясно и безоблачно+13°C87 %756 мм0.5 м/с2 %
    09:00Ясно и безоблачно+19°C62 %757 мм0.7 м/с2 %
    12:00Ясно и безоблачно+24°C42 %757 мм1.6 м/с2 %
    15:00Практически безоблачно+25°C40 %757 мм1.4 м/с2 %
    18:00Небольшая облачность+25°C40 %756 мм1.6 м/с2 %
    21:00Ясно и безоблачно+21°C57 %756 мм0.5 м/с2 %
  • 27мая
    Понедельник
    +13°
    +27°
    Ясно и безоблачно
    ВремяПогодаТемператураВлажностьДавлениеВетер, м/сВероятность осадков
    00:00Ясно и безоблачно+15°C75 %756 мм0.4 м/с2 %
    03:00Ясно и безоблачно+13°C80 %756 мм0.2 м/с2 %
    06:00Ясно и безоблачно+14°C90 %757 мм0.0 м/с2 %
    09:00Ясно и безоблачно+20°C71 %757 мм0.8 м/с2 %
    12:00Практически безоблачно+24°C51 %757 мм1.9 м/с7 %
    15:00Ясно и безоблачно+25°C46 %757 мм1.7 м/с10 %
    18:00Небольшая облачность+25°C49 %756 мм1.9 м/с16 %
    21:00Ясно и безоблачно+21°C81 %756 мм1.1 м/с7 %
Мы используем cookies
Соглашаюсь